sensor_id;sensor_type;location;lat;lon;timestamp;P1;durP1;ratioP1;P2;durP2;ratioP2
80975;SDS011;70437;49.466;11.002;2024-01-30T00:01:35;8.68;;;3.28;;
80975;SDS011;70437;49.466;11.002;2024-01-30T00:04:05;6.88;;;3.25;;
80975;SDS011;70437;49.466;11.002;2024-01-30T00:06:34;9.82;;;3.40;;
80975;SDS011;70437;49.466;11.002;2024-01-30T00:09:05;13.18;;;3.13;;
80975;SDS011;70437;49.466;11.002;2024-01-30T00:11:34;9.43;;;3.10;;
80975;SDS011;70437;49.466;11.002;2024-01-30T00:14:03;8.68;;;3.35;;
80975;SDS011;70437;49.466;11.002;2024-01-30T00:16:42;6.55;;;3.05;;
80975;SDS011;70437;49.466;11.002;2024-01-30T00:19:13;9.27;;;3.28;;
80975;SDS011;70437;49.466;11.002;2024-01-30T00:21:42;7.53;;;3.15;;
80975;SDS011;70437;49.466;11.002;2024-01-30T00:24:12;7.95;;;3.45;;
80975;SDS011;70437;49.466;11.002;2024-01-30T00:26:41;7.22;;;3.35;;
80975;SDS011;70437;49.466;11.002;2024-01-30T00:29:10;8.98;;;3.22;;
80975;SDS011;70437;49.466;11.002;2024-01-30T00:31:48;11.02;;;3.63;;
80975;SDS011;70437;49.466;11.002;2024-01-30T00:34:18;7.20;;;2.90;;
80975;SDS011;70437;49.466;11.002;2024-01-30T00:36:47;9.38;;;3.50;;
80975;SDS011;70437;49.466;11.002;2024-01-30T00:39:17;11.68;;;4.05;;
80975;SDS011;70437;49.466;11.002;2024-01-30T00:41:47;15.68;;;5.53;;
80975;SDS011;70437;49.466;11.002;2024-01-30T00:44:19;11.73;;;4.18;;
80975;SDS011;70437;49.466;11.002;2024-01-30T00:46:55;10.48;;;3.22;;
80975;SDS011;70437;49.466;11.002;2024-01-30T00:49:24;7.78;;;3.00;;
80975;SDS011;70437;49.466;11.002;2024-01-30T00:51:53;6.45;;;2.72;;
80975;SDS011;70437;49.466;11.002;2024-01-30T00:54:25;9.13;;;2.95;;
80975;SDS011;70437;49.466;11.002;2024-01-30T00:56:59;5.88;;;2.38;;
80975;SDS011;70437;49.466;11.002;2024-01-30T00:59:32;6.60;;;3.30;;
80975;SDS011;70437;49.466;11.002;2024-01-30T01:02:03;6.85;;;2.92;;
80975;SDS011;70437;49.466;11.002;2024-01-30T01:04:32;7.30;;;2.85;;
80975;SDS011;70437;49.466;11.002;2024-01-30T01:07:04;7.85;;;3.25;;
80975;SDS011;70437;49.466;11.002;2024-01-30T01:09:35;6.15;;;2.75;;
80975;SDS011;70437;49.466;11.002;2024-01-30T01:12:07;6.05;;;2.67;;
80975;SDS011;70437;49.466;11.002;2024-01-30T01:14:40;8.35;;;3.13;;
80975;SDS011;70437;49.466;11.002;2024-01-30T01:17:13;8.95;;;3.10;;
80975;SDS011;70437;49.466;11.002;2024-01-30T01:19:47;10.45;;;2.70;;
80975;SDS011;70437;49.466;11.002;2024-01-30T01:22:18;7.45;;;2.38;;
80975;SDS011;70437;49.466;11.002;2024-01-30T01:24:50;8.15;;;2.92;;
80975;SDS011;70437;49.466;11.002;2024-01-30T01:27:24;6.90;;;2.72;;
80975;SDS011;70437;49.466;11.002;2024-01-30T01:29:54;5.55;;;2.70;;
80975;SDS011;70437;49.466;11.002;2024-01-30T01:35:30;8.15;;;2.90;;
80975;SDS011;70437;49.466;11.002;2024-01-30T01:38:04;8.68;;;4.50;;
80975;SDS011;70437;49.466;11.002;2024-01-30T01:40:36;34.10;;;14.55;;
80975;SDS011;70437;49.466;11.002;2024-01-30T01:43:08;8.75;;;3.60;;
80975;SDS011;70437;49.466;11.002;2024-01-30T01:45:40;7.03;;;3.20;;
80975;SDS011;70437;49.466;11.002;2024-01-30T01:48:10;7.35;;;3.13;;
80975;SDS011;70437;49.466;11.002;2024-01-30T01:50:43;5.03;;;2.50;;
80975;SDS011;70437;49.466;11.002;2024-01-30T01:53:13;7.82;;;2.75;;
80975;SDS011;70437;49.466;11.002;2024-01-30T01:55:46;5.57;;;2.45;;
80975;SDS011;70437;49.466;11.002;2024-01-30T01:58:21;5.85;;;2.55;;
80975;SDS011;70437;49.466;11.002;2024-01-30T02:00:53;7.25;;;2.67;;
80975;SDS011;70437;49.466;11.002;2024-01-30T02:06:05;12.02;;;2.90;;
80975;SDS011;70437;49.466;11.002;2024-01-30T02:08:37;6.57;;;2.58;;
80975;SDS011;70437;49.466;11.002;2024-01-30T02:11:07;6.82;;;3.20;;
80975;SDS011;70437;49.466;11.002;2024-01-30T02:13:37;6.88;;;2.90;;
80975;SDS011;70437;49.466;11.002;2024-01-30T02:16:07;6.32;;;2.88;;
80975;SDS011;70437;49.466;11.002;2024-01-30T02:18:38;7.25;;;2.67;;
80975;SDS011;70437;49.466;11.002;2024-01-30T02:21:19;6.97;;;2.65;;
80975;SDS011;70437;49.466;11.002;2024-01-30T02:23:51;8.40;;;2.10;;
80975;SDS011;70437;49.466;11.002;2024-01-30T02:26:25;7.30;;;2.55;;
80975;SDS011;70437;49.466;11.002;2024-01-30T02:28:55;7.10;;;2.83;;
80975;SDS011;70437;49.466;11.002;2024-01-30T02:31:25;5.22;;;2.65;;
80975;SDS011;70437;49.466;11.002;2024-01-30T02:33:54;5.20;;;2.25;;
80975;SDS011;70437;49.466;11.002;2024-01-30T02:36:25;6.03;;;2.78;;
80975;SDS011;70437;49.466;11.002;2024-01-30T02:38:55;7.93;;;3.03;;
80975;SDS011;70437;49.466;11.002;2024-01-30T02:41:24;6.32;;;2.42;;
80975;SDS011;70437;49.466;11.002;2024-01-30T02:43:53;7.22;;;3.00;;
80975;SDS011;70437;49.466;11.002;2024-01-30T02:46:23;6.40;;;2.50;;
80975;SDS011;70437;49.466;11.002;2024-01-30T02:48:54;12.23;;;3.20;;
80975;SDS011;70437;49.466;11.002;2024-01-30T02:51:26;6.30;;;2.53;;
80975;SDS011;70437;49.466;11.002;2024-01-30T02:53:57;7.43;;;3.10;;
80975;SDS011;70437;49.466;11.002;2024-01-30T02:56:26;5.28;;;2.67;;
80975;SDS011;70437;49.466;11.002;2024-01-30T02:58:55;6.60;;;2.70;;
80975;SDS011;70437;49.466;11.002;2024-01-30T03:01:25;6.10;;;2.67;;
80975;SDS011;70437;49.466;11.002;2024-01-30T03:03:56;5.50;;;2.65;;
80975;SDS011;70437;49.466;11.002;2024-01-30T03:06:28;7.28;;;3.03;;
80975;SDS011;70437;49.466;11.002;2024-01-30T03:08:58;6.32;;;2.63;;
80975;SDS011;70437;49.466;11.002;2024-01-30T03:11:30;7.60;;;2.85;;
80975;SDS011;70437;49.466;11.002;2024-01-30T03:13:59;8.00;;;2.80;;
80975;SDS011;70437;49.466;11.002;2024-01-30T03:16:29;7.70;;;2.85;;
80975;SDS011;70437;49.466;11.002;2024-01-30T03:18:58;7.15;;;2.78;;
80975;SDS011;70437;49.466;11.002;2024-01-30T03:21:30;8.20;;;2.70;;
80975;SDS011;70437;49.466;11.002;2024-01-30T03:26:31;5.00;;;2.63;;
80975;SDS011;70437;49.466;11.002;2024-01-30T03:29:01;7.80;;;2.85;;
80975;SDS011;70437;49.466;11.002;2024-01-30T03:31:30;6.63;;;3.10;;
80975;SDS011;70437;49.466;11.002;2024-01-30T03:34:01;5.47;;;2.78;;
80975;SDS011;70437;49.466;11.002;2024-01-30T03:36:34;7.22;;;2.72;;
80975;SDS011;70437;49.466;11.002;2024-01-30T03:39:03;5.95;;;2.45;;
80975;SDS011;70437;49.466;11.002;2024-01-30T03:41:35;5.57;;;2.40;;
80975;SDS011;70437;49.466;11.002;2024-01-30T03:44:05;6.55;;;2.95;;
80975;SDS011;70437;49.466;11.002;2024-01-30T03:46:37;11.20;;;2.85;;
80975;SDS011;70437;49.466;11.002;2024-01-30T03:49:06;5.95;;;2.83;;
80975;SDS011;70437;49.466;11.002;2024-01-30T03:51:37;8.20;;;3.22;;
80975;SDS011;70437;49.466;11.002;2024-01-30T03:54:07;10.05;;;3.22;;
80975;SDS011;70437;49.466;11.002;2024-01-30T03:56:37;7.45;;;2.97;;
80975;SDS011;70437;49.466;11.002;2024-01-30T03:59:07;5.60;;;2.78;;
80975;SDS011;70437;49.466;11.002;2024-01-30T04:01:36;6.15;;;2.67;;
80975;SDS011;70437;49.466;11.002;2024-01-30T04:04:09;6.50;;;3.08;;
80975;SDS011;70437;49.466;11.002;2024-01-30T04:06:41;8.30;;;3.10;;
80975;SDS011;70437;49.466;11.002;2024-01-30T04:09:11;7.50;;;3.13;;
80975;SDS011;70437;49.466;11.002;2024-01-30T04:11:44;6.18;;;2.97;;
80975;SDS011;70437;49.466;11.002;2024-01-30T04:14:17;7.45;;;3.00;;
80975;SDS011;70437;49.466;11.002;2024-01-30T04:16:47;7.35;;;3.05;;
80975;SDS011;70437;49.466;11.002;2024-01-30T04:19:24;8.93;;;3.25;;
80975;SDS011;70437;49.466;11.002;2024-01-30T04:21:58;8.13;;;2.92;;
80975;SDS011;70437;49.466;11.002;2024-01-30T04:24:27;9.27;;;2.72;;
80975;SDS011;70437;49.466;11.002;2024-01-30T04:26:58;6.60;;;2.65;;
80975;SDS011;70437;49.466;11.002;2024-01-30T04:29:28;7.45;;;3.10;;
80975;SDS011;70437;49.466;11.002;2024-01-30T04:32:01;6.72;;;2.72;;
80975;SDS011;70437;49.466;11.002;2024-01-30T04:34:30;5.60;;;3.10;;
80975;SDS011;70437;49.466;11.002;2024-01-30T04:37:03;6.10;;;2.78;;
80975;SDS011;70437;49.466;11.002;2024-01-30T04:39:34;7.72;;;2.92;;
80975;SDS011;70437;49.466;11.002;2024-01-30T04:42:05;7.35;;;3.20;;
80975;SDS011;70437;49.466;11.002;2024-01-30T04:44:36;8.55;;;2.97;;
80975;SDS011;70437;49.466;11.002;2024-01-30T04:47:07;8.30;;;3.03;;
80975;SDS011;70437;49.466;11.002;2024-01-30T04:49:38;8.82;;;2.85;;
80975;SDS011;70437;49.466;11.002;2024-01-30T04:52:09;7.60;;;3.35;;
80975;SDS011;70437;49.466;11.002;2024-01-30T04:54:40;10.40;;;3.08;;
80975;SDS011;70437;49.466;11.002;2024-01-30T04:57:10;7.88;;;2.88;;
80975;SDS011;70437;49.466;11.002;2024-01-30T04:59:39;5.20;;;2.53;;
80975;SDS011;70437;49.466;11.002;2024-01-30T05:02:10;7.72;;;2.95;;
80975;SDS011;70437;49.466;11.002;2024-01-30T05:04:44;7.20;;;3.08;;
80975;SDS011;70437;49.466;11.002;2024-01-30T05:07:16;7.25;;;2.95;;
80975;SDS011;70437;49.466;11.002;2024-01-30T05:09:46;10.25;;;3.05;;
80975;SDS011;70437;49.466;11.002;2024-01-30T05:12:15;8.02;;;3.50;;
80975;SDS011;70437;49.466;11.002;2024-01-30T05:14:44;6.30;;;2.85;;
80975;SDS011;70437;49.466;11.002;2024-01-30T05:17:14;9.82;;;3.28;;
80975;SDS011;70437;49.466;11.002;2024-01-30T05:19:43;9.10;;;3.42;;
80975;SDS011;70437;49.466;11.002;2024-01-30T05:22:13;11.48;;;3.05;;
80975;SDS011;70437;49.466;11.002;2024-01-30T05:24:47;5.53;;;2.60;;
80975;SDS011;70437;49.466;11.002;2024-01-30T05:27:16;5.70;;;2.63;;
80975;SDS011;70437;49.466;11.002;2024-01-30T05:29:46;5.93;;;3.05;;
80975;SDS011;70437;49.466;11.002;2024-01-30T05:32:15;7.20;;;2.92;;
80975;SDS011;70437;49.466;11.002;2024-01-30T05:34:45;6.75;;;3.38;;
80975;SDS011;70437;49.466;11.002;2024-01-30T05:37:15;6.13;;;3.13;;
80975;SDS011;70437;49.466;11.002;2024-01-30T05:39:45;12.15;;;3.47;;
80975;SDS011;70437;49.466;11.002;2024-01-30T05:42:17;9.90;;;3.60;;
80975;SDS011;70437;49.466;11.002;2024-01-30T05:44:47;5.75;;;3.13;;
80975;SDS011;70437;49.466;11.002;2024-01-30T05:47:17;6.60;;;3.10;;
80975;SDS011;70437;49.466;11.002;2024-01-30T05:49:47;6.50;;;3.20;;
80975;SDS011;70437;49.466;11.002;2024-01-30T05:52:16;10.70;;;2.95;;
80975;SDS011;70437;49.466;11.002;2024-01-30T05:54:47;9.80;;;3.42;;
80975;SDS011;70437;49.466;11.002;2024-01-30T05:57:18;8.93;;;3.67;;
80975;SDS011;70437;49.466;11.002;2024-01-30T05:59:47;6.95;;;2.80;;
80975;SDS011;70437;49.466;11.002;2024-01-30T06:02:20;6.60;;;2.90;;
80975;SDS011;70437;49.466;11.002;2024-01-30T06:04:50;7.72;;;3.25;;
80975;SDS011;70437;49.466;11.002;2024-01-30T06:07:22;8.63;;;3.00;;
80975;SDS011;70437;49.466;11.002;2024-01-30T06:09:52;6.90;;;3.38;;
80975;SDS011;70437;49.466;11.002;2024-01-30T06:12:28;9.63;;;4.07;;
80975;SDS011;70437;49.466;11.002;2024-01-30T06:15:07;8.02;;;3.28;;
80975;SDS011;70437;49.466;11.002;2024-01-30T06:17:45;5.60;;;3.17;;
80975;SDS011;70437;49.466;11.002;2024-01-30T06:20:21;6.43;;;3.13;;
80975;SDS011;70437;49.466;11.002;2024-01-30T06:22:52;10.85;;;3.50;;
80975;SDS011;70437;49.466;11.002;2024-01-30T06:25:22;7.05;;;3.40;;
80975;SDS011;70437;49.466;11.002;2024-01-30T06:27:58;10.50;;;3.67;;
80975;SDS011;70437;49.466;11.002;2024-01-30T06:30:35;9.30;;;3.88;;
80975;SDS011;70437;49.466;11.002;2024-01-30T06:33:04;7.28;;;3.45;;
80975;SDS011;70437;49.466;11.002;2024-01-30T06:35:36;8.20;;;3.65;;
80975;SDS011;70437;49.466;11.002;2024-01-30T06:38:11;8.57;;;3.88;;
80975;SDS011;70437;49.466;11.002;2024-01-30T06:40:40;8.15;;;4.03;;
80975;SDS011;70437;49.466;11.002;2024-01-30T06:43:13;9.07;;;4.35;;
80975;SDS011;70437;49.466;11.002;2024-01-30T06:45:42;10.57;;;4.63;;
80975;SDS011;70437;49.466;11.002;2024-01-30T06:48:18;10.20;;;4.50;;
80975;SDS011;70437;49.466;11.002;2024-01-30T06:51:02;12.65;;;3.85;;
80975;SDS011;70437;49.466;11.002;2024-01-30T06:53:32;11.50;;;4.05;;
80975;SDS011;70437;49.466;11.002;2024-01-30T06:56:02;11.98;;;4.47;;
80975;SDS011;70437;49.466;11.002;2024-01-30T06:58:33;11.85;;;4.78;;
80975;SDS011;70437;49.466;11.002;2024-01-30T07:01:03;9.20;;;3.67;;
80975;SDS011;70437;49.466;11.002;2024-01-30T07:03:36;10.57;;;4.50;;
80975;SDS011;70437;49.466;11.002;2024-01-30T07:06:07;10.77;;;4.50;;
80975;SDS011;70437;49.466;11.002;2024-01-30T07:08:36;10.15;;;4.63;;
80975;SDS011;70437;49.466;11.002;2024-01-30T07:11:08;10.63;;;4.95;;
80975;SDS011;70437;49.466;11.002;2024-01-30T07:13:41;8.93;;;4.13;;
80975;SDS011;70437;49.466;11.002;2024-01-30T07:16:10;9.88;;;4.28;;
80975;SDS011;70437;49.466;11.002;2024-01-30T07:18:40;12.15;;;4.70;;
80975;SDS011;70437;49.466;11.002;2024-01-30T07:21:09;11.05;;;3.83;;
80975;SDS011;70437;49.466;11.002;2024-01-30T07:23:40;22.00;;;4.30;;
80975;SDS011;70437;49.466;11.002;2024-01-30T07:26:21;13.00;;;4.50;;
80975;SDS011;70437;49.466;11.002;2024-01-30T07:28:52;13.02;;;4.45;;
80975;SDS011;70437;49.466;11.002;2024-01-30T07:31:27;11.85;;;4.78;;
80975;SDS011;70437;49.466;11.002;2024-01-30T07:34:01;10.23;;;4.70;;
80975;SDS011;70437;49.466;11.002;2024-01-30T07:36:31;9.02;;;4.63;;
80975;SDS011;70437;49.466;11.002;2024-01-30T07:39:01;10.40;;;4.95;;
80975;SDS011;70437;49.466;11.002;2024-01-30T07:41:33;11.18;;;4.70;;
80975;SDS011;70437;49.466;11.002;2024-01-30T07:44:04;13.63;;;5.07;;
80975;SDS011;70437;49.466;11.002;2024-01-30T07:46:33;10.52;;;4.72;;
80975;SDS011;70437;49.466;11.002;2024-01-30T07:49:04;11.85;;;4.65;;
80975;SDS011;70437;49.466;11.002;2024-01-30T07:51:34;11.07;;;4.97;;
80975;SDS011;70437;49.466;11.002;2024-01-30T07:54:04;11.23;;;5.10;;
80975;SDS011;70437;49.466;11.002;2024-01-30T07:56:43;10.60;;;5.13;;
80975;SDS011;70437;49.466;11.002;2024-01-30T07:59:15;13.13;;;5.53;;
80975;SDS011;70437;49.466;11.002;2024-01-30T08:01:46;14.23;;;5.57;;
80975;SDS011;70437;49.466;11.002;2024-01-30T08:04:32;12.05;;;5.28;;
80975;SDS011;70437;49.466;11.002;2024-01-30T08:07:03;10.95;;;5.25;;
80975;SDS011;70437;49.466;11.002;2024-01-30T08:09:36;12.10;;;5.45;;
80975;SDS011;70437;49.466;11.002;2024-01-30T08:12:08;12.10;;;6.00;;
80975;SDS011;70437;49.466;11.002;2024-01-30T08:14:48;11.88;;;5.88;;
80975;SDS011;70437;49.466;11.002;2024-01-30T08:17:18;12.95;;;6.40;;
80975;SDS011;70437;49.466;11.002;2024-01-30T08:19:49;15.95;;;5.90;;
80975;SDS011;70437;49.466;11.002;2024-01-30T08:22:19;10.02;;;5.05;;
80975;SDS011;70437;49.466;11.002;2024-01-30T08:24:49;13.07;;;5.68;;
80975;SDS011;70437;49.466;11.002;2024-01-30T08:27:18;13.40;;;5.50;;
80975;SDS011;70437;49.466;11.002;2024-01-30T08:29:49;11.95;;;5.72;;
80975;SDS011;70437;49.466;11.002;2024-01-30T08:32:19;13.80;;;5.97;;
80975;SDS011;70437;49.466;11.002;2024-01-30T08:34:49;12.05;;;5.40;;
80975;SDS011;70437;49.466;11.002;2024-01-30T08:37:19;10.30;;;5.07;;
80975;SDS011;70437;49.466;11.002;2024-01-30T08:39:50;12.40;;;5.65;;
80975;SDS011;70437;49.466;11.002;2024-01-30T08:42:21;13.45;;;5.35;;
80975;SDS011;70437;49.466;11.002;2024-01-30T08:44:55;14.20;;;5.80;;
80975;SDS011;70437;49.466;11.002;2024-01-30T08:47:25;12.63;;;5.82;;
80975;SDS011;70437;49.466;11.002;2024-01-30T08:49:54;10.75;;;5.60;;
80975;SDS011;70437;49.466;11.002;2024-01-30T08:52:25;11.73;;;5.60;;
80975;SDS011;70437;49.466;11.002;2024-01-30T08:54:57;12.48;;;6.22;;
80975;SDS011;70437;49.466;11.002;2024-01-30T08:57:29;15.02;;;5.70;;
80975;SDS011;70437;49.466;11.002;2024-01-30T09:00:01;15.40;;;4.93;;
80975;SDS011;70437;49.466;11.002;2024-01-30T09:02:35;11.75;;;5.47;;
80975;SDS011;70437;49.466;11.002;2024-01-30T09:05:07;12.05;;;5.35;;
80975;SDS011;70437;49.466;11.002;2024-01-30T09:07:37;22.15;;;6.35;;
80975;SDS011;70437;49.466;11.002;2024-01-30T09:10:08;14.05;;;6.93;;
80975;SDS011;70437;49.466;11.002;2024-01-30T09:12:41;13.80;;;5.55;;
80975;SDS011;70437;49.466;11.002;2024-01-30T09:15:14;14.73;;;5.63;;
80975;SDS011;70437;49.466;11.002;2024-01-30T09:17:42;10.63;;;5.40;;
80975;SDS011;70437;49.466;11.002;2024-01-30T09:20:12;11.50;;;5.63;;
80975;SDS011;70437;49.466;11.002;2024-01-30T09:22:42;11.07;;;5.15;;
80975;SDS011;70437;49.466;11.002;2024-01-30T09:25:11;11.02;;;6.03;;
80975;SDS011;70437;49.466;11.002;2024-01-30T09:27:42;12.00;;;5.72;;
80975;SDS011;70437;49.466;11.002;2024-01-30T09:30:14;11.20;;;5.45;;
80975;SDS011;70437;49.466;11.002;2024-01-30T09:32:47;13.95;;;6.35;;
80975;SDS011;70437;49.466;11.002;2024-01-30T09:35:15;11.25;;;5.93;;
80975;SDS011;70437;49.466;11.002;2024-01-30T09:37:45;11.45;;;5.88;;
80975;SDS011;70437;49.466;11.002;2024-01-30T09:40:16;13.02;;;5.60;;
80975;SDS011;70437;49.466;11.002;2024-01-30T09:42:48;11.05;;;5.50;;
80975;SDS011;70437;49.466;11.002;2024-01-30T09:45:21;13.57;;;6.00;;
80975;SDS011;70437;49.466;11.002;2024-01-30T09:47:55;11.82;;;5.88;;
80975;SDS011;70437;49.466;11.002;2024-01-30T09:50:30;14.57;;;6.35;;
80975;SDS011;70437;49.466;11.002;2024-01-30T09:53:02;10.38;;;5.60;;
80975;SDS011;70437;49.466;11.002;2024-01-30T09:58:04;10.45;;;5.70;;
80975;SDS011;70437;49.466;11.002;2024-01-30T10:00:36;11.75;;;5.60;;
80975;SDS011;70437;49.466;11.002;2024-01-30T10:03:07;10.30;;;5.43;;
80975;SDS011;70437;49.466;11.002;2024-01-30T10:05:37;10.25;;;5.00;;
80975;SDS011;70437;49.466;11.002;2024-01-30T10:08:08;12.15;;;5.47;;
80975;SDS011;70437;49.466;11.002;2024-01-30T10:10:40;14.27;;;5.45;;
80975;SDS011;70437;49.466;11.002;2024-01-30T10:13:10;9.55;;;5.28;;
80975;SDS011;70437;49.466;11.002;2024-01-30T10:15:41;13.35;;;5.75;;
80975;SDS011;70437;49.466;11.002;2024-01-30T10:18:12;13.40;;;5.90;;
80975;SDS011;70437;49.466;11.002;2024-01-30T10:20:41;10.77;;;5.97;;
80975;SDS011;70437;49.466;11.002;2024-01-30T10:23:13;15.00;;;5.93;;
80975;SDS011;70437;49.466;11.002;2024-01-30T10:25:43;13.57;;;5.78;;
80975;SDS011;70437;49.466;11.002;2024-01-30T10:28:13;11.38;;;5.68;;
80975;SDS011;70437;49.466;11.002;2024-01-30T10:30:46;16.70;;;6.65;;
80975;SDS011;70437;49.466;11.002;2024-01-30T10:33:16;11.57;;;5.82;;
80975;SDS011;70437;49.466;11.002;2024-01-30T10:35:45;11.10;;;5.78;;
80975;SDS011;70437;49.466;11.002;2024-01-30T10:38:19;11.70;;;6.30;;
80975;SDS011;70437;49.466;11.002;2024-01-30T10:40:50;17.45;;;6.18;;
80975;SDS011;70437;49.466;11.002;2024-01-30T10:43:24;11.98;;;5.97;;
80975;SDS011;70437;49.466;11.002;2024-01-30T10:46:04;12.52;;;6.32;;
80975;SDS011;70437;49.466;11.002;2024-01-30T10:48:41;12.45;;;6.15;;
80975;SDS011;70437;49.466;11.002;2024-01-30T10:51:13;15.90;;;6.05;;
80975;SDS011;70437;49.466;11.002;2024-01-30T10:53:44;13.63;;;5.97;;
80975;SDS011;70437;49.466;11.002;2024-01-30T10:56:17;11.82;;;5.75;;
80975;SDS011;70437;49.466;11.002;2024-01-30T10:58:50;13.30;;;6.18;;
80975;SDS011;70437;49.466;11.002;2024-01-30T11:01:22;15.05;;;5.40;;
80975;SDS011;70437;49.466;11.002;2024-01-30T11:03:53;13.80;;;5.70;;
80975;SDS011;70437;49.466;11.002;2024-01-30T11:06:25;11.60;;;5.90;;
80975;SDS011;70437;49.466;11.002;2024-01-30T11:09:00;11.32;;;5.65;;
80975;SDS011;70437;49.466;11.002;2024-01-30T11:11:31;17.13;;;5.35;;
80975;SDS011;70437;49.466;11.002;2024-01-30T11:14:07;11.95;;;5.93;;
80975;SDS011;70437;49.466;11.002;2024-01-30T11:16:41;12.43;;;5.57;;
80975;SDS011;70437;49.466;11.002;2024-01-30T11:19:14;11.85;;;5.57;;
80975;SDS011;70437;49.466;11.002;2024-01-30T11:21:43;10.27;;;5.43;;
80975;SDS011;70437;49.466;11.002;2024-01-30T11:24:14;10.93;;;5.10;;
80975;SDS011;70437;49.466;11.002;2024-01-30T11:26:43;10.57;;;5.13;;
80975;SDS011;70437;49.466;11.002;2024-01-30T11:29:13;12.23;;;5.85;;
80975;SDS011;70437;49.466;11.002;2024-01-30T11:31:54;9.68;;;5.43;;
80975;SDS011;70437;49.466;11.002;2024-01-30T11:34:23;9.20;;;5.30;;
80975;SDS011;70437;49.466;11.002;2024-01-30T11:36:56;10.73;;;5.00;;
80975;SDS011;70437;49.466;11.002;2024-01-30T11:39:28;11.35;;;4.97;;
80975;SDS011;70437;49.466;11.002;2024-01-30T11:41:59;9.55;;;4.63;;
80975;SDS011;70437;49.466;11.002;2024-01-30T11:44:29;14.27;;;5.30;;
80975;SDS011;70437;49.466;11.002;2024-01-30T11:47:03;14.40;;;5.38;;
80975;SDS011;70437;49.466;11.002;2024-01-30T11:49:35;10.43;;;5.13;;
80975;SDS011;70437;49.466;11.002;2024-01-30T11:52:05;11.98;;;4.82;;
80975;SDS011;70437;49.466;11.002;2024-01-30T11:54:35;10.77;;;5.18;;
80975;SDS011;70437;49.466;11.002;2024-01-30T11:57:10;12.02;;;5.60;;
80975;SDS011;70437;49.466;11.002;2024-01-30T11:59:41;13.38;;;5.25;;
80975;SDS011;70437;49.466;11.002;2024-01-30T12:02:16;9.00;;;4.60;;
80975;SDS011;70437;49.466;11.002;2024-01-30T12:04:46;12.63;;;5.45;;
80975;SDS011;70437;49.466;11.002;2024-01-30T12:07:15;9.90;;;5.00;;
80975;SDS011;70437;49.466;11.002;2024-01-30T12:09:51;14.70;;;5.43;;
80975;SDS011;70437;49.466;11.002;2024-01-30T12:12:23;12.50;;;5.53;;
80975;SDS011;70437;49.466;11.002;2024-01-30T12:14:53;12.10;;;5.03;;
80975;SDS011;70437;49.466;11.002;2024-01-30T12:17:28;10.25;;;4.93;;
80975;SDS011;70437;49.466;11.002;2024-01-30T12:20:03;10.68;;;5.97;;
80975;SDS011;70437;49.466;11.002;2024-01-30T12:22:35;12.98;;;5.45;;
80975;SDS011;70437;49.466;11.002;2024-01-30T12:25:07;14.32;;;5.75;;
80975;SDS011;70437;49.466;11.002;2024-01-30T12:27:39;12.18;;;5.47;;
80975;SDS011;70437;49.466;11.002;2024-01-30T12:30:10;11.25;;;5.88;;
80975;SDS011;70437;49.466;11.002;2024-01-30T12:32:44;12.52;;;5.68;;
80975;SDS011;70437;49.466;11.002;2024-01-30T12:35:16;12.15;;;5.68;;
80975;SDS011;70437;49.466;11.002;2024-01-30T12:37:47;9.98;;;5.43;;
80975;SDS011;70437;49.466;11.002;2024-01-30T12:40:17;10.05;;;5.25;;
80975;SDS011;70437;49.466;11.002;2024-01-30T12:42:48;9.80;;;5.00;;
80975;SDS011;70437;49.466;11.002;2024-01-30T12:45:18;11.05;;;5.40;;
80975;SDS011;70437;49.466;11.002;2024-01-30T12:47:51;9.88;;;4.93;;
80975;SDS011;70437;49.466;11.002;2024-01-30T12:50:22;12.25;;;5.47;;
80975;SDS011;70437;49.466;11.002;2024-01-30T12:52:54;12.90;;;5.70;;
80975;SDS011;70437;49.466;11.002;2024-01-30T12:55:28;12.65;;;5.00;;
80975;SDS011;70437;49.466;11.002;2024-01-30T12:57:58;9.35;;;4.90;;
80975;SDS011;70437;49.466;11.002;2024-01-30T13:00:30;11.05;;;4.82;;
80975;SDS011;70437;49.466;11.002;2024-01-30T13:03:03;10.60;;;5.20;;
80975;SDS011;70437;49.466;11.002;2024-01-30T13:05:34;10.88;;;5.45;;
80975;SDS011;70437;49.466;11.002;2024-01-30T13:08:03;12.00;;;5.20;;
80975;SDS011;70437;49.466;11.002;2024-01-30T13:10:34;12.55;;;5.93;;
80975;SDS011;70437;49.466;11.002;2024-01-30T13:13:04;10.63;;;5.10;;
80975;SDS011;70437;49.466;11.002;2024-01-30T13:15:46;14.10;;;5.40;;
80975;SDS011;70437;49.466;11.002;2024-01-30T13:18:17;12.90;;;5.32;;
80975;SDS011;70437;49.466;11.002;2024-01-30T13:20:48;11.30;;;5.35;;
80975;SDS011;70437;49.466;11.002;2024-01-30T13:23:18;20.48;;;5.38;;
80975;SDS011;70437;49.466;11.002;2024-01-30T13:25:49;12.88;;;5.35;;
80975;SDS011;70437;49.466;11.002;2024-01-30T13:28:19;13.93;;;5.93;;
80975;SDS011;70437;49.466;11.002;2024-01-30T13:30:51;12.65;;;5.13;;
80975;SDS011;70437;49.466;11.002;2024-01-30T13:33:24;12.10;;;5.60;;
80975;SDS011;70437;49.466;11.002;2024-01-30T13:35:56;10.80;;;5.47;;
80975;SDS011;70437;49.466;11.002;2024-01-30T13:38:26;12.20;;;5.63;;
80975;SDS011;70437;49.466;11.002;2024-01-30T13:40:59;9.40;;;5.32;;
80975;SDS011;70437;49.466;11.002;2024-01-30T13:43:29;13.32;;;5.28;;
80975;SDS011;70437;49.466;11.002;2024-01-30T13:45:59;11.45;;;5.43;;
80975;SDS011;70437;49.466;11.002;2024-01-30T13:48:32;11.75;;;5.97;;
80975;SDS011;70437;49.466;11.002;2024-01-30T13:51:03;12.45;;;5.68;;
80975;SDS011;70437;49.466;11.002;2024-01-30T13:53:34;13.18;;;5.93;;
80975;SDS011;70437;49.466;11.002;2024-01-30T13:56:09;9.75;;;4.82;;
80975;SDS011;70437;49.466;11.002;2024-01-30T13:58:40;10.05;;;5.10;;
80975;SDS011;70437;49.466;11.002;2024-01-30T14:01:12;13.98;;;5.90;;
80975;SDS011;70437;49.466;11.002;2024-01-30T14:03:46;14.02;;;5.30;;
80975;SDS011;70437;49.466;11.002;2024-01-30T14:06:17;11.48;;;5.43;;
80975;SDS011;70437;49.466;11.002;2024-01-30T14:08:56;11.25;;;5.20;;
80975;SDS011;70437;49.466;11.002;2024-01-30T14:11:34;10.40;;;5.55;;
80975;SDS011;70437;49.466;11.002;2024-01-30T14:14:04;21.27;;;6.07;;
80975;SDS011;70437;49.466;11.002;2024-01-30T14:16:35;11.63;;;5.53;;
80975;SDS011;70437;49.466;11.002;2024-01-30T14:19:07;12.75;;;5.85;;
80975;SDS011;70437;49.466;11.002;2024-01-30T14:21:37;12.05;;;5.30;;
80975;SDS011;70437;49.466;11.002;2024-01-30T14:24:08;9.95;;;4.75;;
80975;SDS011;70437;49.466;11.002;2024-01-30T14:26:38;15.98;;;6.10;;
80975;SDS011;70437;49.466;11.002;2024-01-30T14:29:10;12.85;;;5.10;;
80975;SDS011;70437;49.466;11.002;2024-01-30T14:31:40;11.48;;;4.60;;
80975;SDS011;70437;49.466;11.002;2024-01-30T14:34:11;12.18;;;6.10;;
80975;SDS011;70437;49.466;11.002;2024-01-30T14:36:42;13.52;;;5.53;;
80975;SDS011;70437;49.466;11.002;2024-01-30T14:39:13;12.18;;;4.75;;
80975;SDS011;70437;49.466;11.002;2024-01-30T14:41:47;13.98;;;5.07;;
80975;SDS011;70437;49.466;11.002;2024-01-30T14:44:17;13.10;;;5.03;;
80975;SDS011;70437;49.466;11.002;2024-01-30T14:46:50;13.85;;;5.20;;
80975;SDS011;70437;49.466;11.002;2024-01-30T14:49:22;9.80;;;5.00;;
80975;SDS011;70437;49.466;11.002;2024-01-30T14:51:52;12.13;;;5.22;;
80975;SDS011;70437;49.466;11.002;2024-01-30T14:54:21;9.65;;;5.03;;
80975;SDS011;70437;49.466;11.002;2024-01-30T14:56:51;13.07;;;5.18;;
80975;SDS011;70437;49.466;11.002;2024-01-30T14:59:21;12.63;;;4.75;;
80975;SDS011;70437;49.466;11.002;2024-01-30T15:01:51;11.02;;;5.28;;
80975;SDS011;70437;49.466;11.002;2024-01-30T15:04:24;10.00;;;5.15;;